sensor_id;sensor_type;location;lat;lon;timestamp;P1;durP1;ratioP1;P2;durP2;ratioP2
13289;SDS011;6713;50.954;5.310;2023-11-21T00:01:57;35.20;;;16.50;;
13289;SDS011;6713;50.954;5.310;2023-11-21T00:04:23;36.80;;;16.53;;
13289;SDS011;6713;50.954;5.310;2023-11-21T00:06:50;25.57;;;13.53;;
13289;SDS011;6713;50.954;5.310;2023-11-21T00:09:17;26.57;;;13.00;;
13289;SDS011;6713;50.954;5.310;2023-11-21T00:11:45;32.00;;;15.17;;
13289;SDS011;6713;50.954;5.310;2023-11-21T00:14:11;33.13;;;14.03;;
13289;SDS011;6713;50.954;5.310;2023-11-21T00:16:40;28.97;;;13.40;;
13289;SDS011;6713;50.954;5.310;2023-11-21T00:19:06;27.63;;;15.40;;
13289;SDS011;6713;50.954;5.310;2023-11-21T00:21:32;25.73;;;14.37;;
13289;SDS011;6713;50.954;5.310;2023-11-21T00:23:58;28.53;;;13.53;;
13289;SDS011;6713;50.954;5.310;2023-11-21T00:26:26;23.97;;;13.03;;
13289;SDS011;6713;50.954;5.310;2023-11-21T00:28:53;27.63;;;14.07;;
13289;SDS011;6713;50.954;5.310;2023-11-21T00:31:19;30.23;;;15.40;;
13289;SDS011;6713;50.954;5.310;2023-11-21T00:33:46;25.17;;;12.47;;
13289;SDS011;6713;50.954;5.310;2023-11-21T00:36:12;31.60;;;13.37;;
13289;SDS011;6713;50.954;5.310;2023-11-21T00:38:38;28.40;;;14.10;;
13289;SDS011;6713;50.954;5.310;2023-11-21T00:41:05;22.73;;;13.13;;
13289;SDS011;6713;50.954;5.310;2023-11-21T00:43:33;27.10;;;14.03;;
13289;SDS011;6713;50.954;5.310;2023-11-21T00:45:59;24.57;;;13.27;;
13289;SDS011;6713;50.954;5.310;2023-11-21T00:48:26;23.97;;;13.50;;
13289;SDS011;6713;50.954;5.310;2023-11-21T00:50:52;27.20;;;13.87;;
13289;SDS011;6713;50.954;5.310;2023-11-21T00:53:18;27.33;;;14.00;;
13289;SDS011;6713;50.954;5.310;2023-11-21T00:55:45;24.90;;;13.40;;
13289;SDS011;6713;50.954;5.310;2023-11-21T00:58:11;25.90;;;11.23;;
13289;SDS011;6713;50.954;5.310;2023-11-21T01:00:38;24.60;;;13.17;;
13289;SDS011;6713;50.954;5.310;2023-11-21T01:03:05;28.77;;;13.73;;
13289;SDS011;6713;50.954;5.310;2023-11-21T01:05:32;28.97;;;13.83;;
13289;SDS011;6713;50.954;5.310;2023-11-21T01:07:59;30.20;;;14.03;;
13289;SDS011;6713;50.954;5.310;2023-11-21T01:10:25;25.40;;;12.37;;
13289;SDS011;6713;50.954;5.310;2023-11-21T01:12:52;22.60;;;11.93;;
13289;SDS011;6713;50.954;5.310;2023-11-21T01:15:18;21.53;;;13.03;;
13289;SDS011;6713;50.954;5.310;2023-11-21T01:17:47;25.33;;;13.20;;
13289;SDS011;6713;50.954;5.310;2023-11-21T01:20:13;32.83;;;14.30;;
13289;SDS011;6713;50.954;5.310;2023-11-21T01:22:40;23.83;;;14.47;;
13289;SDS011;6713;50.954;5.310;2023-11-21T01:25:06;28.00;;;12.80;;
13289;SDS011;6713;50.954;5.310;2023-11-21T01:27:33;23.00;;;12.80;;
13289;SDS011;6713;50.954;5.310;2023-11-21T01:29:59;24.63;;;12.00;;
13289;SDS011;6713;50.954;5.310;2023-11-21T01:32:25;33.50;;;14.17;;
13289;SDS011;6713;50.954;5.310;2023-11-21T01:34:53;27.77;;;14.73;;
13289;SDS011;6713;50.954;5.310;2023-11-21T01:37:20;29.17;;;12.93;;
13289;SDS011;6713;50.954;5.310;2023-11-21T01:39:46;28.43;;;13.07;;
13289;SDS011;6713;50.954;5.310;2023-11-21T01:42:13;27.40;;;13.10;;
13289;SDS011;6713;50.954;5.310;2023-11-21T01:44:39;24.97;;;13.43;;
13289;SDS011;6713;50.954;5.310;2023-11-21T01:47:05;26.93;;;13.40;;
13289;SDS011;6713;50.954;5.310;2023-11-21T01:49:32;26.67;;;14.90;;
13289;SDS011;6713;50.954;5.310;2023-11-21T01:52:00;27.80;;;13.83;;
13289;SDS011;6713;50.954;5.310;2023-11-21T01:54:27;33.03;;;14.60;;
13289;SDS011;6713;50.954;5.310;2023-11-21T01:56:56;24.57;;;13.23;;
13289;SDS011;6713;50.954;5.310;2023-11-21T01:59:27;27.00;;;13.60;;
13289;SDS011;6713;50.954;5.310;2023-11-21T02:01:56;33.67;;;14.97;;
13289;SDS011;6713;50.954;5.310;2023-11-21T02:04:22;27.70;;;14.10;;
13289;SDS011;6713;50.954;5.310;2023-11-21T02:06:49;24.00;;;13.73;;
13289;SDS011;6713;50.954;5.310;2023-11-21T02:09:17;28.37;;;15.03;;
13289;SDS011;6713;50.954;5.310;2023-11-21T02:11:43;31.77;;;14.43;;
13289;SDS011;6713;50.954;5.310;2023-11-21T02:14:09;32.63;;;14.63;;
13289;SDS011;6713;50.954;5.310;2023-11-21T02:16:36;29.50;;;14.73;;
13289;SDS011;6713;50.954;5.310;2023-11-21T02:19:03;25.97;;;13.60;;
13289;SDS011;6713;50.954;5.310;2023-11-21T02:21:34;31.80;;;15.03;;
13289;SDS011;6713;50.954;5.310;2023-11-21T02:24:03;27.50;;;14.63;;
13289;SDS011;6713;50.954;5.310;2023-11-21T02:26:29;28.57;;;14.23;;
13289;SDS011;6713;50.954;5.310;2023-11-21T02:28:55;26.93;;;14.13;;
13289;SDS011;6713;50.954;5.310;2023-11-21T02:31:23;28.43;;;14.47;;
13289;SDS011;6713;50.954;5.310;2023-11-21T02:33:49;37.20;;;16.50;;
13289;SDS011;6713;50.954;5.310;2023-11-21T02:36:16;37.37;;;15.63;;
13289;SDS011;6713;50.954;5.310;2023-11-21T02:38:42;32.90;;;15.50;;
13289;SDS011;6713;50.954;5.310;2023-11-21T02:41:10;33.37;;;14.10;;
13289;SDS011;6713;50.954;5.310;2023-11-21T02:43:36;32.70;;;16.03;;
13289;SDS011;6713;50.954;5.310;2023-11-21T02:46:03;33.63;;;14.73;;
13289;SDS011;6713;50.954;5.310;2023-11-21T02:48:30;33.83;;;15.70;;
13289;SDS011;6713;50.954;5.310;2023-11-21T02:50:56;36.70;;;16.30;;
13289;SDS011;6713;50.954;5.310;2023-11-21T02:53:22;36.57;;;16.90;;
13289;SDS011;6713;50.954;5.310;2023-11-21T02:55:49;35.73;;;14.80;;
13289;SDS011;6713;50.954;5.310;2023-11-21T02:58:18;39.83;;;16.53;;
13289;SDS011;6713;50.954;5.310;2023-11-21T03:00:44;40.57;;;18.07;;
13289;SDS011;6713;50.954;5.310;2023-11-21T03:03:11;42.80;;;18.40;;
13289;SDS011;6713;50.954;5.310;2023-11-21T03:05:37;45.27;;;18.63;;
13289;SDS011;6713;50.954;5.310;2023-11-21T03:08:04;45.50;;;18.07;;
13289;SDS011;6713;50.954;5.310;2023-11-21T03:10:30;39.07;;;17.77;;
13289;SDS011;6713;50.954;5.310;2023-11-21T03:12:56;46.87;;;20.43;;
13289;SDS011;6713;50.954;5.310;2023-11-21T03:15:24;55.70;;;21.67;;
13289;SDS011;6713;50.954;5.310;2023-11-21T03:17:51;53.97;;;20.97;;
13289;SDS011;6713;50.954;5.310;2023-11-21T03:20:17;45.47;;;19.90;;
13289;SDS011;6713;50.954;5.310;2023-11-21T03:22:43;44.43;;;19.33;;
13289;SDS011;6713;50.954;5.310;2023-11-21T03:25:10;41.13;;;19.83;;
13289;SDS011;6713;50.954;5.310;2023-11-21T03:27:36;51.77;;;21.67;;
13289;SDS011;6713;50.954;5.310;2023-11-21T03:30:04;55.93;;;20.60;;
13289;SDS011;6713;50.954;5.310;2023-11-21T03:32:33;50.70;;;20.40;;
13289;SDS011;6713;50.954;5.310;2023-11-21T03:35:00;47.23;;;18.43;;
13289;SDS011;6713;50.954;5.310;2023-11-21T03:37:27;38.60;;;18.27;;
13289;SDS011;6713;50.954;5.310;2023-11-21T03:39:54;42.33;;;18.10;;
13289;SDS011;6713;50.954;5.310;2023-11-21T03:42:21;45.57;;;19.80;;
13289;SDS011;6713;50.954;5.310;2023-11-21T03:44:47;44.10;;;19.10;;
13289;SDS011;6713;50.954;5.310;2023-11-21T03:47:13;43.00;;;20.60;;
13289;SDS011;6713;50.954;5.310;2023-11-21T03:49:42;45.77;;;19.57;;
13289;SDS011;6713;50.954;5.310;2023-11-21T03:52:08;42.23;;;18.80;;
13289;SDS011;6713;50.954;5.310;2023-11-21T03:54:35;54.60;;;20.80;;
13289;SDS011;6713;50.954;5.310;2023-11-21T03:57:02;46.93;;;19.63;;
13289;SDS011;6713;50.954;5.310;2023-11-21T03:59:28;40.10;;;17.93;;
13289;SDS011;6713;50.954;5.310;2023-11-21T04:01:55;43.90;;;18.40;;
13289;SDS011;6713;50.954;5.310;2023-11-21T04:04:21;44.83;;;19.83;;
13289;SDS011;6713;50.954;5.310;2023-11-21T04:06:50;40.57;;;17.23;;
13289;SDS011;6713;50.954;5.310;2023-11-21T04:09:17;42.77;;;18.47;;
13289;SDS011;6713;50.954;5.310;2023-11-21T04:11:44;48.40;;;18.57;;
13289;SDS011;6713;50.954;5.310;2023-11-21T04:14:11;43.37;;;18.57;;
13289;SDS011;6713;50.954;5.310;2023-11-21T04:16:37;46.07;;;19.30;;
13289;SDS011;6713;50.954;5.310;2023-11-21T04:19:03;48.10;;;19.90;;
13289;SDS011;6713;50.954;5.310;2023-11-21T04:21:30;48.00;;;18.80;;
13289;SDS011;6713;50.954;5.310;2023-11-21T04:23:58;44.80;;;18.03;;
13289;SDS011;6713;50.954;5.310;2023-11-21T04:26:24;43.33;;;17.10;;
13289;SDS011;6713;50.954;5.310;2023-11-21T04:28:51;38.27;;;17.30;;
13289;SDS011;6713;50.954;5.310;2023-11-21T04:31:17;43.93;;;16.87;;
13289;SDS011;6713;50.954;5.310;2023-11-21T04:33:43;39.07;;;18.17;;
13289;SDS011;6713;50.954;5.310;2023-11-21T04:36:10;36.63;;;16.03;;
13289;SDS011;6713;50.954;5.310;2023-11-21T04:38:37;42.30;;;16.40;;
13289;SDS011;6713;50.954;5.310;2023-11-21T04:41:05;40.20;;;16.93;;
13289;SDS011;6713;50.954;5.310;2023-11-21T04:43:31;43.53;;;16.50;;
13289;SDS011;6713;50.954;5.310;2023-11-21T04:45:57;42.73;;;15.53;;
13289;SDS011;6713;50.954;5.310;2023-11-21T04:48:24;38.10;;;15.07;;
13289;SDS011;6713;50.954;5.310;2023-11-21T04:50:51;41.40;;;15.53;;
13289;SDS011;6713;50.954;5.310;2023-11-21T04:53:17;32.90;;;14.83;;
13289;SDS011;6713;50.954;5.310;2023-11-21T04:55:44;36.77;;;13.93;;
13289;SDS011;6713;50.954;5.310;2023-11-21T04:58:12;44.23;;;15.83;;
13289;SDS011;6713;50.954;5.310;2023-11-21T05:00:38;40.50;;;16.43;;
13289;SDS011;6713;50.954;5.310;2023-11-21T05:03:04;54.03;;;18.10;;
13289;SDS011;6713;50.954;5.310;2023-11-21T05:05:32;102.33;;;20.57;;
13289;SDS011;6713;50.954;5.310;2023-11-21T05:07:59;47.17;;;15.27;;
13289;SDS011;6713;50.954;5.310;2023-11-21T05:10:26;51.90;;;17.10;;
13289;SDS011;6713;50.954;5.310;2023-11-21T05:12:52;46.23;;;16.00;;
13289;SDS011;6713;50.954;5.310;2023-11-21T05:15:20;42.87;;;16.67;;
13289;SDS011;6713;50.954;5.310;2023-11-21T05:17:46;53.80;;;17.10;;
13289;SDS011;6713;50.954;5.310;2023-11-21T05:20:15;48.27;;;17.30;;
13289;SDS011;6713;50.954;5.310;2023-11-21T05:22:45;48.27;;;16.27;;
13289;SDS011;6713;50.954;5.310;2023-11-21T05:25:13;34.83;;;16.43;;
13289;SDS011;6713;50.954;5.310;2023-11-21T05:27:39;37.87;;;16.67;;
13289;SDS011;6713;50.954;5.310;2023-11-21T05:30:06;32.27;;;14.53;;
13289;SDS011;6713;50.954;5.310;2023-11-21T05:32:35;34.10;;;15.70;;
13289;SDS011;6713;50.954;5.310;2023-11-21T05:35:02;58.07;;;17.70;;
13289;SDS011;6713;50.954;5.310;2023-11-21T05:37:28;40.47;;;17.17;;
13289;SDS011;6713;50.954;5.310;2023-11-21T05:39:55;47.83;;;16.37;;
13289;SDS011;6713;50.954;5.310;2023-11-21T05:42:21;34.13;;;15.83;;
13289;SDS011;6713;50.954;5.310;2023-11-21T05:44:48;46.80;;;16.90;;
13289;SDS011;6713;50.954;5.310;2023-11-21T05:47:14;35.57;;;15.50;;
13289;SDS011;6713;50.954;5.310;2023-11-21T05:49:42;39.37;;;15.90;;
13289;SDS011;6713;50.954;5.310;2023-11-21T05:52:10;44.67;;;18.77;;
13289;SDS011;6713;50.954;5.310;2023-11-21T05:54:36;35.07;;;16.30;;
13289;SDS011;6713;50.954;5.310;2023-11-21T05:57:03;34.50;;;15.73;;
13289;SDS011;6713;50.954;5.310;2023-11-21T05:59:29;35.63;;;15.90;;
13289;SDS011;6713;50.954;5.310;2023-11-21T06:01:55;49.53;;;18.17;;
13289;SDS011;6713;50.954;5.310;2023-11-21T06:04:22;46.77;;;16.80;;
13289;SDS011;6713;50.954;5.310;2023-11-21T06:06:51;32.90;;;14.97;;
13289;SDS011;6713;50.954;5.310;2023-11-21T06:09:18;41.87;;;16.23;;
13289;SDS011;6713;50.954;5.310;2023-11-21T06:11:45;43.17;;;16.10;;
13289;SDS011;6713;50.954;5.310;2023-11-21T06:14:10;37.60;;;16.00;;
13289;SDS011;6713;50.954;5.310;2023-11-21T06:16:37;43.23;;;16.87;;
13289;SDS011;6713;50.954;5.310;2023-11-21T06:19:05;65.83;;;18.07;;
13289;SDS011;6713;50.954;5.310;2023-11-21T06:21:31;42.10;;;15.90;;
13289;SDS011;6713;50.954;5.310;2023-11-21T06:24:00;44.57;;;17.87;;
13289;SDS011;6713;50.954;5.310;2023-11-21T06:26:26;47.20;;;18.27;;
13289;SDS011;6713;50.954;5.310;2023-11-21T06:28:53;32.97;;;15.73;;
13289;SDS011;6713;50.954;5.310;2023-11-21T06:31:20;43.37;;;17.70;;
13289;SDS011;6713;50.954;5.310;2023-11-21T06:33:46;39.37;;;17.87;;
13289;SDS011;6713;50.954;5.310;2023-11-21T06:36:13;43.83;;;19.10;;
13289;SDS011;6713;50.954;5.310;2023-11-21T06:38:39;41.03;;;17.67;;
13289;SDS011;6713;50.954;5.310;2023-11-21T06:41:07;45.77;;;17.77;;
13289;SDS011;6713;50.954;5.310;2023-11-21T06:43:33;37.13;;;16.67;;
13289;SDS011;6713;50.954;5.310;2023-11-21T06:46:00;44.03;;;17.00;;
13289;SDS011;6713;50.954;5.310;2023-11-21T06:48:26;42.50;;;17.67;;
13289;SDS011;6713;50.954;5.310;2023-11-21T06:50:52;42.33;;;18.50;;
13289;SDS011;6713;50.954;5.310;2023-11-21T06:53:19;38.70;;;17.57;;
13289;SDS011;6713;50.954;5.310;2023-11-21T06:55:45;41.80;;;17.17;;
13289;SDS011;6713;50.954;5.310;2023-11-21T06:58:13;36.60;;;17.20;;
13289;SDS011;6713;50.954;5.310;2023-11-21T07:00:40;51.37;;;19.70;;
13289;SDS011;6713;50.954;5.310;2023-11-21T07:03:11;53.37;;;19.57;;
13289;SDS011;6713;50.954;5.310;2023-11-21T07:05:37;47.43;;;19.43;;
13289;SDS011;6713;50.954;5.310;2023-11-21T07:08:04;50.13;;;19.77;;
13289;SDS011;6713;50.954;5.310;2023-11-21T07:10:30;51.63;;;18.93;;
13289;SDS011;6713;50.954;5.310;2023-11-21T07:12:57;42.60;;;17.67;;
13289;SDS011;6713;50.954;5.310;2023-11-21T07:15:25;39.73;;;18.03;;
13289;SDS011;6713;50.954;5.310;2023-11-21T07:17:51;47.40;;;17.90;;
13289;SDS011;6713;50.954;5.310;2023-11-21T07:20:19;41.67;;;16.10;;
13289;SDS011;6713;50.954;5.310;2023-11-21T07:22:46;43.17;;;17.20;;
13289;SDS011;6713;50.954;5.310;2023-11-21T07:25:12;45.90;;;17.93;;
13289;SDS011;6713;50.954;5.310;2023-11-21T07:27:39;42.97;;;17.23;;
13289;SDS011;6713;50.954;5.310;2023-11-21T07:30:06;42.60;;;19.10;;
13289;SDS011;6713;50.954;5.310;2023-11-21T07:32:36;49.07;;;18.97;;
13289;SDS011;6713;50.954;5.310;2023-11-21T07:35:04;51.33;;;19.87;;
13289;SDS011;6713;50.954;5.310;2023-11-21T07:37:33;51.80;;;20.33;;
13289;SDS011;6713;50.954;5.310;2023-11-21T07:39:59;58.97;;;21.50;;
13289;SDS011;6713;50.954;5.310;2023-11-21T07:42:25;59.83;;;20.70;;
13289;SDS011;6713;50.954;5.310;2023-11-21T07:44:52;59.07;;;20.67;;
13289;SDS011;6713;50.954;5.310;2023-11-21T07:47:18;58.20;;;19.97;;
13289;SDS011;6713;50.954;5.310;2023-11-21T07:49:46;56.83;;;21.00;;
13289;SDS011;6713;50.954;5.310;2023-11-21T07:52:13;52.70;;;18.93;;
13289;SDS011;6713;50.954;5.310;2023-11-21T07:54:41;57.50;;;20.03;;
13289;SDS011;6713;50.954;5.310;2023-11-21T07:57:07;63.27;;;22.53;;
13289;SDS011;6713;50.954;5.310;2023-11-21T07:59:33;55.13;;;19.93;;
13289;SDS011;6713;50.954;5.310;2023-11-21T08:02:00;48.43;;;21.43;;
13289;SDS011;6713;50.954;5.310;2023-11-21T08:04:26;51.13;;;19.47;;
13289;SDS011;6713;50.954;5.310;2023-11-21T08:06:54;52.33;;;20.77;;
13289;SDS011;6713;50.954;5.310;2023-11-21T08:09:20;44.23;;;19.27;;
13289;SDS011;6713;50.954;5.310;2023-11-21T08:11:48;57.57;;;21.47;;
13289;SDS011;6713;50.954;5.310;2023-11-21T08:14:15;48.90;;;19.50;;
13289;SDS011;6713;50.954;5.310;2023-11-21T08:16:41;48.17;;;19.50;;
13289;SDS011;6713;50.954;5.310;2023-11-21T08:19:09;49.67;;;19.97;;
13289;SDS011;6713;50.954;5.310;2023-11-21T08:21:36;53.20;;;19.33;;
13289;SDS011;6713;50.954;5.310;2023-11-21T08:24:07;50.70;;;19.70;;
13289;SDS011;6713;50.954;5.310;2023-11-21T08:26:35;50.47;;;21.57;;
13289;SDS011;6713;50.954;5.310;2023-11-21T08:29:02;49.63;;;20.87;;
13289;SDS011;6713;50.954;5.310;2023-11-21T08:31:28;46.60;;;19.50;;
13289;SDS011;6713;50.954;5.310;2023-11-21T08:33:55;46.07;;;19.73;;
13289;SDS011;6713;50.954;5.310;2023-11-21T08:36:21;43.27;;;20.60;;
13289;SDS011;6713;50.954;5.310;2023-11-21T08:38:49;43.63;;;18.47;;
13289;SDS011;6713;50.954;5.310;2023-11-21T08:41:18;54.20;;;20.07;;
13289;SDS011;6713;50.954;5.310;2023-11-21T08:43:47;44.90;;;18.87;;
13289;SDS011;6713;50.954;5.310;2023-11-21T08:46:13;44.63;;;19.87;;
13289;SDS011;6713;50.954;5.310;2023-11-21T08:48:40;49.33;;;20.77;;
13289;SDS011;6713;50.954;5.310;2023-11-21T08:51:09;40.17;;;19.47;;
13289;SDS011;6713;50.954;5.310;2023-11-21T08:53:36;42.27;;;18.00;;
13289;SDS011;6713;50.954;5.310;2023-11-21T08:56:03;39.37;;;16.97;;
13289;SDS011;6713;50.954;5.310;2023-11-21T08:58:31;42.20;;;18.70;;
13289;SDS011;6713;50.954;5.310;2023-11-21T09:00:58;41.43;;;17.13;;
13289;SDS011;6713;50.954;5.310;2023-11-21T09:03:24;39.63;;;18.53;;
13289;SDS011;6713;50.954;5.310;2023-11-21T09:05:51;39.50;;;17.97;;
13289;SDS011;6713;50.954;5.310;2023-11-21T09:08:18;40.13;;;19.27;;
13289;SDS011;6713;50.954;5.310;2023-11-21T09:10:44;37.00;;;18.10;;
13289;SDS011;6713;50.954;5.310;2023-11-21T09:13:12;38.80;;;17.03;;
13289;SDS011;6713;50.954;5.310;2023-11-21T09:15:40;41.80;;;18.20;;
13289;SDS011;6713;50.954;5.310;2023-11-21T09:18:07;37.90;;;17.13;;
13289;SDS011;6713;50.954;5.310;2023-11-21T09:20:33;36.83;;;18.83;;
13289;SDS011;6713;50.954;5.310;2023-11-21T09:22:59;35.73;;;17.57;;
13289;SDS011;6713;50.954;5.310;2023-11-21T09:25:26;31.60;;;15.87;;
13289;SDS011;6713;50.954;5.310;2023-11-21T09:27:53;32.67;;;16.20;;
13289;SDS011;6713;50.954;5.310;2023-11-21T09:30:21;32.30;;;16.70;;
13289;SDS011;6713;50.954;5.310;2023-11-21T09:32:51;37.43;;;17.83;;
13289;SDS011;6713;50.954;5.310;2023-11-21T09:35:17;36.13;;;15.73;;
13289;SDS011;6713;50.954;5.310;2023-11-21T09:37:43;29.33;;;15.37;;
13289;SDS011;6713;50.954;5.310;2023-11-21T09:40:11;28.53;;;14.10;;
13289;SDS011;6713;50.954;5.310;2023-11-21T09:42:40;28.93;;;14.63;;
13289;SDS011;6713;50.954;5.310;2023-11-21T09:45:10;27.83;;;15.23;;
13289;SDS011;6713;50.954;5.310;2023-11-21T09:47:40;30.90;;;15.10;;
13289;SDS011;6713;50.954;5.310;2023-11-21T09:50:10;28.57;;;15.10;;
13289;SDS011;6713;50.954;5.310;2023-11-21T09:52:39;29.17;;;15.27;;
13289;SDS011;6713;50.954;5.310;2023-11-21T09:55:10;25.20;;;14.17;;
13289;SDS011;6713;50.954;5.310;2023-11-21T09:57:40;24.73;;;13.93;;
13289;SDS011;6713;50.954;5.310;2023-11-21T10:00:08;23.23;;;13.90;;
13289;SDS011;6713;50.954;5.310;2023-11-21T10:02:37;24.57;;;13.97;;
13289;SDS011;6713;50.954;5.310;2023-11-21T10:05:04;26.30;;;14.10;;
13289;SDS011;6713;50.954;5.310;2023-11-21T10:07:32;29.00;;;15.20;;
13289;SDS011;6713;50.954;5.310;2023-11-21T10:10:00;24.13;;;14.60;;
13289;SDS011;6713;50.954;5.310;2023-11-21T10:12:27;25.83;;;15.00;;
13289;SDS011;6713;50.954;5.310;2023-11-21T10:14:54;29.07;;;14.70;;
13289;SDS011;6713;50.954;5.310;2023-11-21T10:17:23;29.53;;;15.27;;
13289;SDS011;6713;50.954;5.310;2023-11-21T10:19:51;22.73;;;12.70;;
13289;SDS011;6713;50.954;5.310;2023-11-21T10:22:18;29.03;;;15.10;;
13289;SDS011;6713;50.954;5.310;2023-11-21T10:24:47;24.70;;;13.43;;
13289;SDS011;6713;50.954;5.310;2023-11-21T10:27:13;25.07;;;14.13;;
13289;SDS011;6713;50.954;5.310;2023-11-21T10:29:40;26.67;;;15.60;;
13289;SDS011;6713;50.954;5.310;2023-11-21T10:32:07;25.03;;;13.90;;
13289;SDS011;6713;50.954;5.310;2023-11-21T10:34:33;23.10;;;13.33;;
13289;SDS011;6713;50.954;5.310;2023-11-21T10:37:00;28.17;;;15.33;;
13289;SDS011;6713;50.954;5.310;2023-11-21T10:39:36;26.63;;;14.37;;
13289;SDS011;6713;50.954;5.310;2023-11-21T10:42:04;26.30;;;14.60;;
13289;SDS011;6713;50.954;5.310;2023-11-21T10:44:34;26.60;;;14.27;;
13289;SDS011;6713;50.954;5.310;2023-11-21T10:47:00;29.50;;;14.67;;
13289;SDS011;6713;50.954;5.310;2023-11-21T10:49:27;29.00;;;15.13;;
13289;SDS011;6713;50.954;5.310;2023-11-21T10:51:54;24.03;;;13.23;;
13289;SDS011;6713;50.954;5.310;2023-11-21T10:54:21;29.63;;;15.13;;
13289;SDS011;6713;50.954;5.310;2023-11-21T10:56:48;23.63;;;13.93;;
13289;SDS011;6713;50.954;5.310;2023-11-21T10:59:17;21.10;;;12.13;;
13289;SDS011;6713;50.954;5.310;2023-11-21T11:01:46;25.87;;;13.23;;
13289;SDS011;6713;50.954;5.310;2023-11-21T11:04:14;24.57;;;15.20;;
13289;SDS011;6713;50.954;5.310;2023-11-21T11:06:42;23.87;;;14.47;;
13289;SDS011;6713;50.954;5.310;2023-11-21T11:09:09;24.47;;;13.57;;
13289;SDS011;6713;50.954;5.310;2023-11-21T11:11:38;26.30;;;14.37;;
13289;SDS011;6713;50.954;5.310;2023-11-21T11:14:06;23.33;;;14.40;;
13289;SDS011;6713;50.954;5.310;2023-11-21T11:16:34;24.03;;;13.67;;
13289;SDS011;6713;50.954;5.310;2023-11-21T11:19:02;26.53;;;14.13;;
13289;SDS011;6713;50.954;5.310;2023-11-21T11:21:31;25.37;;;14.57;;
13289;SDS011;6713;50.954;5.310;2023-11-21T11:24:07;28.37;;;14.30;;
13289;SDS011;6713;50.954;5.310;2023-11-21T11:26:39;27.37;;;14.13;;
13289;SDS011;6713;50.954;5.310;2023-11-21T11:29:10;25.43;;;13.10;;
13289;SDS011;6713;50.954;5.310;2023-11-21T11:31:45;28.20;;;14.43;;
13289;SDS011;6713;50.954;5.310;2023-11-21T11:34:17;21.50;;;13.53;;
13289;SDS011;6713;50.954;5.310;2023-11-21T11:36:47;27.07;;;13.93;;
13289;SDS011;6713;50.954;5.310;2023-11-21T11:39:26;25.97;;;13.20;;
13289;SDS011;6713;50.954;5.310;2023-11-21T11:41:53;30.50;;;14.17;;
13289;SDS011;6713;50.954;5.310;2023-11-21T11:47:02;28.17;;;14.77;;
13289;SDS011;6713;50.954;5.310;2023-11-21T11:49:28;25.43;;;14.40;;
13289;SDS011;6713;50.954;5.310;2023-11-21T11:54:39;28.47;;;16.13;;
13289;SDS011;6713;50.954;5.310;2023-11-21T11:57:05;26.10;;;13.70;;
13289;SDS011;6713;50.954;5.310;2023-11-21T11:59:37;26.10;;;14.13;;
13289;SDS011;6713;50.954;5.310;2023-11-21T12:02:24;28.43;;;15.40;;
13289;SDS011;6713;50.954;5.310;2023-11-21T12:04:55;27.40;;;15.40;;
13289;SDS011;6713;50.954;5.310;2023-11-21T12:07:21;30.17;;;15.87;;
13289;SDS011;6713;50.954;5.310;2023-11-21T12:09:48;30.77;;;15.67;;
13289;SDS011;6713;50.954;5.310;2023-11-21T12:12:15;33.33;;;16.17;;
13289;SDS011;6713;50.954;5.310;2023-11-21T12:14:44;29.47;;;15.57;;
13289;SDS011;6713;50.954;5.310;2023-11-21T12:17:11;32.13;;;16.67;;
13289;SDS011;6713;50.954;5.310;2023-11-21T12:19:39;29.23;;;16.57;;
13289;SDS011;6713;50.954;5.310;2023-11-21T12:22:05;25.10;;;15.87;;
13289;SDS011;6713;50.954;5.310;2023-11-21T12:24:33;29.77;;;16.63;;
13289;SDS011;6713;50.954;5.310;2023-11-21T12:26:59;29.47;;;16.07;;
13289;SDS011;6713;50.954;5.310;2023-11-21T12:29:25;25.17;;;14.50;;
13289;SDS011;6713;50.954;5.310;2023-11-21T12:31:54;26.93;;;13.10;;
13289;SDS011;6713;50.954;5.310;2023-11-21T12:34:21;26.53;;;13.97;;
13289;SDS011;6713;50.954;5.310;2023-11-21T12:36:49;25.77;;;14.50;;
13289;SDS011;6713;50.954;5.310;2023-11-21T12:39:17;27.00;;;14.73;;
13289;SDS011;6713;50.954;5.310;2023-11-21T12:41:47;28.80;;;15.23;;
13289;SDS011;6713;50.954;5.310;2023-11-21T12:44:13;23.10;;;14.00;;
13289;SDS011;6713;50.954;5.310;2023-11-21T12:46:41;26.63;;;14.87;;
13289;SDS011;6713;50.954;5.310;2023-11-21T12:49:07;21.93;;;14.17;;
13289;SDS011;6713;50.954;5.310;2023-11-21T12:51:35;28.13;;;15.67;;
13289;SDS011;6713;50.954;5.310;2023-11-21T12:54:03;22.47;;;13.50;;
13289;SDS011;6713;50.954;5.310;2023-11-21T12:56:30;27.43;;;15.20;;
13289;SDS011;6713;50.954;5.310;2023-11-21T12:58:57;24.03;;;14.63;;
13289;SDS011;6713;50.954;5.310;2023-11-21T13:01:25;24.60;;;14.73;;
13289;SDS011;6713;50.954;5.310;2023-11-21T13:03:53;29.33;;;14.03;;
13289;SDS011;6713;50.954;5.310;2023-11-21T13:06:19;24.40;;;14.57;;
13289;SDS011;6713;50.954;5.310;2023-11-21T13:08:49;25.97;;;14.80;;
13289;SDS011;6713;50.954;5.310;2023-11-21T13:11:17;21.70;;;14.80;;
13289;SDS011;6713;50.954;5.310;2023-11-21T13:13:44;28.43;;;15.43;;
13289;SDS011;6713;50.954;5.310;2023-11-21T13:16:10;29.70;;;17.07;;
13289;SDS011;6713;50.954;5.310;2023-11-21T13:18:37;29.27;;;17.83;;
13289;SDS011;6713;50.954;5.310;2023-11-21T13:21:05;28.03;;;16.13;;
13289;SDS011;6713;50.954;5.310;2023-11-21T13:23:37;33.67;;;17.20;;
13289;SDS011;6713;50.954;5.310;2023-11-21T13:26:05;26.93;;;16.17;;
13289;SDS011;6713;50.954;5.310;2023-11-21T13:28:33;32.33;;;17.23;;
13289;SDS011;6713;50.954;5.310;2023-11-21T13:31:00;25.63;;;16.67;;
13289;SDS011;6713;50.954;5.310;2023-11-21T13:33:34;26.03;;;15.50;;
13289;SDS011;6713;50.954;5.310;2023-11-21T13:36:03;30.07;;;16.57;;
13289;SDS011;6713;50.954;5.310;2023-11-21T13:38:32;26.33;;;15.80;;
13289;SDS011;6713;50.954;5.310;2023-11-21T13:41:00;25.57;;;14.73;;
13289;SDS011;6713;50.954;5.310;2023-11-21T13:43:33;20.23;;;13.03;;
13289;SDS011;6713;50.954;5.310;2023-11-21T13:45:59;25.43;;;16.10;;
13289;SDS011;6713;50.954;5.310;2023-11-21T13:48:35;20.17;;;14.07;;
13289;SDS011;6713;50.954;5.310;2023-11-21T13:51:07;25.83;;;14.87;;
13289;SDS011;6713;50.954;5.310;2023-11-21T13:53:40;20.60;;;13.17;;
13289;SDS011;6713;50.954;5.310;2023-11-21T13:56:07;23.83;;;14.57;;
13289;SDS011;6713;50.954;5.310;2023-11-21T13:58:35;18.77;;;13.13;;
13289;SDS011;6713;50.954;5.310;2023-11-21T14:01:09;21.60;;;13.70;;
13289;SDS011;6713;50.954;5.310;2023-11-21T14:03:49;22.90;;;12.83;;
13289;SDS011;6713;50.954;5.310;2023-11-21T14:06:21;24.30;;;13.70;;
13289;SDS011;6713;50.954;5.310;2023-11-21T14:08:53;22.03;;;13.87;;
13289;SDS011;6713;50.954;5.310;2023-11-21T14:11:22;21.10;;;13.33;;
13289;SDS011;6713;50.954;5.310;2023-11-21T14:13:50;25.47;;;14.10;;
13289;SDS011;6713;50.954;5.310;2023-11-21T14:16:16;19.33;;;12.73;;
13289;SDS011;6713;50.954;5.310;2023-11-21T14:18:43;21.20;;;13.47;;
13289;SDS011;6713;50.954;5.310;2023-11-21T14:21:17;19.60;;;12.20;;
13289;SDS011;6713;50.954;5.310;2023-11-21T14:23:46;18.57;;;12.70;;
13289;SDS011;6713;50.954;5.310;2023-11-21T14:26:13;21.10;;;12.50;;
13289;SDS011;6713;50.954;5.310;2023-11-21T14:28:41;17.83;;;11.53;;
13289;SDS011;6713;50.954;5.310;2023-11-21T14:31:08;19.50;;;11.90;;
13289;SDS011;6713;50.954;5.310;2023-11-21T14:33:38;18.10;;;11.10;;
13289;SDS011;6713;50.954;5.310;2023-11-21T14:36:05;18.27;;;12.57;;
13289;SDS011;6713;50.954;5.310;2023-11-21T14:38:33;13.00;;;11.07;;
13289;SDS011;6713;50.954;5.310;2023-11-21T14:40:59;13.10;;;10.07;;